createdAt,value
2022-09-25T00:01:10.259Z,18.00
2022-09-25T00:03:37.272Z,19.98
2022-09-25T00:06:06.727Z,19.33
2022-09-25T00:08:34.485Z,17.58
2022-09-25T00:11:06.696Z,19.50
2022-09-25T00:13:34.157Z,18.02
2022-09-25T00:16:03.113Z,18.65
2022-09-25T00:18:49.129Z,18.38
2022-09-25T00:21:17.279Z,19.33
2022-09-25T00:23:45.340Z,19.52
2022-09-25T00:26:14.152Z,19.02
2022-09-25T00:28:42.510Z,19.58
2022-09-25T00:31:11.650Z,19.83
2022-09-25T00:33:38.546Z,18.90
2022-09-25T00:36:08.210Z,20.55
2022-09-25T00:38:37.057Z,20.88
2022-09-25T00:41:06.335Z,21.35
2022-09-25T00:43:40.767Z,20.60
2022-09-25T00:48:37.389Z,19.60
2022-09-25T00:51:06.202Z,19.20
2022-09-25T00:53:40.964Z,18.13
2022-09-25T00:56:13.333Z,17.15
2022-09-25T00:58:41.177Z,15.98
2022-09-25T01:01:09.225Z,15.23
2022-09-25T01:03:37.193Z,15.55
2022-09-25T01:06:04.226Z,15.70
2022-09-25T01:08:32.009Z,15.10
2022-09-25T01:10:58.983Z,14.30
2022-09-25T01:13:26.830Z,13.98
2022-09-25T01:16:20.620Z,18.45
2022-09-25T01:19:20.566Z,22.98
2022-09-25T01:21:51.931Z,23.08
2022-09-25T01:24:37.619Z,22.13
2022-09-25T01:27:10.844Z,22.08
2022-09-25T01:29:44.366Z,19.92
2022-09-25T01:32:26.204Z,20.00
2022-09-25T01:35:04.666Z,17.63
2022-09-25T01:38:01.586Z,18.88
2022-09-25T01:41:12.544Z,18.05
2022-09-25T01:43:53.261Z,18.13
2022-09-25T01:46:24.256Z,18.50
2022-09-25T01:48:57.689Z,18.77
2022-09-25T01:51:36.192Z,18.48
2022-09-25T01:54:09.010Z,18.23
2022-09-25T01:56:44.260Z,19.48
2022-09-25T01:59:22.730Z,17.75
2022-09-25T02:01:51.385Z,17.80
2022-09-25T02:04:28.161Z,16.05
2022-09-25T02:06:58.917Z,17.88
2022-09-25T02:09:37.681Z,17.45
2022-09-25T02:12:29.144Z,15.98
2022-09-25T02:15:00.828Z,16.02
2022-09-25T02:17:56.459Z,16.70
2022-09-25T02:20:34.617Z,17.05
2022-09-25T02:23:53.865Z,17.50
2022-09-25T02:26:32.203Z,17.70
2022-09-25T02:28:59.808Z,18.15
2022-09-25T02:31:51.349Z,17.40
2022-09-25T02:34:18.534Z,17.38
2022-09-25T02:36:45.559Z,16.73
2022-09-25T02:39:16.125Z,17.95
2022-09-25T02:42:03.343Z,16.13
2022-09-25T02:44:45.241Z,17.83
2022-09-25T02:47:33.144Z,16.30
2022-09-25T02:50:09.337Z,15.90
2022-09-25T02:52:57.453Z,16.45
2022-09-25T02:55:45.234Z,15.73
2022-09-25T02:58:27.947Z,16.45
2022-09-25T03:00:57.482Z,16.08
2022-09-25T03:03:26.627Z,16.17
2022-09-25T03:05:56.811Z,15.98
2022-09-25T03:08:37.988Z,18.20
2022-09-25T03:11:08.681Z,16.17
2022-09-25T03:13:35.584Z,16.08
2022-09-25T03:16:09.169Z,16.23
2022-09-25T03:18:36.028Z,16.15
2022-09-25T03:21:04.291Z,17.08
2022-09-25T03:23:32.590Z,15.68
2022-09-25T03:25:59.509Z,15.40
2022-09-25T03:28:26.526Z,16.38
2022-09-25T03:31:02.178Z,16.30
2022-09-25T03:33:31.367Z,16.02
2022-09-25T03:36:02.143Z,15.30
2022-09-25T03:38:29.035Z,14.60
2022-09-25T03:40:55.941Z,15.15
2022-09-25T03:43:22.927Z,15.35
2022-09-25T03:45:49.815Z,13.75
2022-09-25T03:48:17.893Z,13.95
2022-09-25T03:50:46.239Z,15.18
2022-09-25T03:53:13.163Z,14.02
2022-09-25T03:55:40.010Z,13.27
2022-09-25T03:58:06.934Z,12.98
2022-09-25T04:00:33.851Z,13.68
2022-09-25T04:03:00.665Z,14.05
2022-09-25T04:05:27.433Z,13.32
2022-09-25T04:07:54.317Z,13.40
2022-09-25T04:10:21.195Z,13.57
2022-09-25T04:12:48.037Z,14.15
2022-09-25T04:15:15.200Z,14.90
2022-09-25T04:17:42.102Z,13.65
2022-09-25T04:20:09.963Z,13.65
2022-09-25T04:22:36.877Z,13.43
2022-09-25T04:25:03.898Z,14.65
2022-09-25T04:27:30.763Z,14.13
2022-09-25T04:29:57.644Z,12.85
2022-09-25T04:32:43.138Z,15.27
2022-09-25T04:35:09.970Z,13.10
2022-09-25T04:37:36.848Z,12.50
2022-09-25T04:40:04.191Z,12.35
2022-09-25T04:42:31.029Z,11.77
2022-09-25T04:44:58.445Z,13.25
2022-09-25T04:47:27.433Z,12.95
2022-09-25T04:49:54.265Z,12.45
2022-09-25T04:52:21.193Z,12.65
2022-09-25T04:54:48.347Z,13.18
2022-09-25T04:57:45.738Z,13.77
2022-09-25T05:00:08.180Z,13.43
2022-09-25T05:02:35.124Z,12.18
2022-09-25T05:05:02.235Z,12.07
2022-09-25T05:07:29.223Z,11.68
2022-09-25T05:09:56.117Z,11.82
2022-09-25T05:12:22.904Z,12.02
2022-09-25T05:14:50.052Z,11.75
2022-09-25T05:17:16.936Z,12.25
2022-09-25T05:19:43.778Z,11.75
2022-09-25T05:22:10.601Z,11.45
2022-09-25T05:24:38.657Z,10.55
2022-09-25T05:27:05.626Z,10.98
2022-09-25T05:29:32.503Z,11.13
2022-09-25T05:31:59.637Z,10.63
2022-09-25T05:34:26.905Z,10.35
2022-09-25T05:36:53.733Z,10.85
2022-09-25T05:39:20.552Z,9.50
2022-09-25T05:41:47.351Z,9.93
2022-09-25T05:44:15.012Z,9.85
2022-09-25T05:46:42.383Z,9.98
2022-09-25T05:49:09.504Z,10.82
2022-09-25T05:51:36.465Z,10.65
2022-09-25T05:54:03.477Z,12.05
2022-09-25T05:56:30.441Z,12.68
2022-09-25T05:58:58.617Z,11.20
2022-09-25T06:01:26.247Z,11.55
2022-09-25T06:03:53.246Z,11.48
2022-09-25T06:06:25.151Z,11.93
2022-09-25T06:08:54.683Z,10.63
2022-09-25T06:11:22.456Z,11.02
2022-09-25T06:13:54.276Z,11.55
2022-09-25T06:16:21.667Z,12.13
2022-09-25T06:18:48.824Z,12.15
2022-09-25T06:21:15.656Z,12.48
2022-09-25T06:23:45.015Z,13.00
2022-09-25T06:26:12.707Z,11.73
2022-09-25T06:28:40.092Z,11.98
2022-09-25T06:31:07.516Z,12.00
2022-09-25T06:33:34.410Z,13.05
2022-09-25T06:36:01.513Z,11.65
2022-09-25T06:38:28.776Z,12.85
2022-09-25T06:40:59.598Z,12.00
2022-09-25T06:43:27.927Z,11.68
2022-09-25T06:45:54.826Z,10.93
2022-09-25T06:48:22.334Z,11.18
2022-09-25T06:50:53.967Z,11.38
2022-09-25T06:53:22.613Z,11.07
2022-09-25T06:55:50.051Z,12.95
2022-09-25T06:58:20.515Z,11.52
2022-09-25T07:00:49.001Z,11.93
2022-09-25T07:03:34.615Z,11.15
2022-09-25T07:06:02.305Z,12.15
2022-09-25T07:08:29.450Z,11.55
2022-09-25T07:10:58.164Z,10.05
2022-09-25T07:13:27.732Z,9.82
2022-09-25T07:16:02.685Z,9.98
2022-09-25T07:18:30.370Z,11.02
2022-09-25T07:21:09.570Z,12.05
2022-09-25T07:23:37.937Z,10.82
2022-09-25T07:26:22.061Z,10.23
2022-09-25T07:29:00.345Z,10.05
2022-09-25T07:31:29.480Z,10.13
2022-09-25T07:33:57.608Z,8.57
2022-09-25T07:36:24.716Z,8.40
2022-09-25T07:38:52.907Z,10.13
2022-09-25T07:41:22.684Z,8.38
2022-09-25T07:46:44.794Z,7.28
2022-09-25T07:49:12.152Z,7.38
2022-09-25T07:51:39.264Z,7.75
2022-09-25T07:54:06.268Z,7.05
2022-09-25T07:56:34.699Z,8.00
2022-09-25T07:59:01.770Z,7.35
2022-09-25T08:01:28.849Z,7.78
2022-09-25T08:03:55.753Z,7.80
2022-09-25T08:06:22.646Z,7.68
2022-09-25T08:08:49.451Z,8.40
2022-09-25T08:11:17.791Z,8.65
2022-09-25T08:13:46.213Z,8.82
2022-09-25T08:16:15.903Z,8.23
2022-09-25T08:18:46.295Z,8.63
2022-09-25T08:21:15.400Z,7.72
2022-09-25T08:23:47.756Z,7.80
2022-09-25T08:26:15.942Z,8.23
2022-09-25T08:28:43.109Z,7.88
2022-09-25T08:31:10.250Z,6.95
2022-09-25T08:33:37.514Z,7.18
2022-09-25T08:36:05.983Z,6.88
2022-09-25T08:38:33.457Z,6.60
2022-09-25T08:41:04.844Z,6.88
2022-09-25T08:43:35.342Z,6.90
2022-09-25T08:46:29.148Z,7.38
2022-09-25T08:49:04.947Z,6.03
2022-09-25T08:51:38.513Z,6.10
2022-09-25T08:54:05.834Z,6.88
2022-09-25T08:56:35.219Z,7.10
2022-09-25T08:59:19.853Z,6.60
2022-09-25T09:01:53.436Z,5.43
2022-09-25T09:04:37.099Z,7.65
2022-09-25T09:07:26.825Z,6.57
2022-09-25T09:10:07.764Z,5.82
2022-09-25T09:12:49.271Z,6.15
2022-09-25T09:15:39.235Z,6.25
2022-09-25T09:18:21.466Z,5.50
2022-09-25T09:20:54.632Z,5.82
2022-09-25T09:23:24.392Z,6.47
2022-09-25T09:25:59.227Z,5.72
2022-09-25T09:28:37.849Z,6.00
2022-09-25T09:31:35.272Z,6.50
2022-09-25T09:34:02.011Z,6.25
2022-09-25T09:36:51.442Z,5.70
2022-09-25T09:39:32.187Z,5.97
2022-09-25T09:42:13.900Z,6.40
2022-09-25T09:45:13.133Z,6.18
2022-09-25T09:47:46.327Z,6.45
2022-09-25T09:50:26.994Z,6.77
2022-09-25T09:53:03.618Z,5.80
2022-09-25T09:55:36.299Z,5.75
2022-09-25T09:58:08.779Z,5.97
2022-09-25T10:04:27.324Z,6.30
2022-09-25T10:10:44.005Z,7.00
2022-09-25T10:13:20.389Z,6.70
2022-09-25T10:15:52.812Z,7.35
2022-09-25T10:18:22.939Z,7.05
2022-09-25T10:20:59.279Z,8.02
2022-09-25T10:23:47.111Z,7.63
2022-09-25T10:26:25.913Z,8.15
2022-09-25T10:28:53.536Z,8.68
2022-09-25T10:31:21.222Z,8.48
2022-09-25T10:34:14.152Z,7.55
2022-09-25T10:36:43.621Z,7.25
2022-09-25T10:39:46.335Z,8.02
2022-09-25T10:42:37.493Z,6.65
2022-09-25T10:45:22.410Z,8.13
2022-09-25T10:48:09.301Z,8.50
2022-09-25T10:50:39.540Z,8.65
2022-09-25T10:53:07.724Z,8.98
2022-09-25T10:55:37.460Z,8.32
2022-09-25T10:58:27.176Z,8.70
2022-09-25T11:00:58.991Z,7.97
2022-09-25T11:03:32.864Z,7.88
2022-09-25T11:06:05.693Z,8.65
2022-09-25T11:08:41.361Z,8.68
2022-09-25T11:11:09.806Z,8.20
2022-09-25T11:13:50.537Z,7.78
2022-09-25T11:16:17.536Z,7.18
2022-09-25T11:18:50.037Z,8.13
2022-09-25T11:21:19.957Z,6.90
2022-09-25T11:24:06.934Z,6.75
2022-09-25T11:26:43.325Z,7.25
2022-09-25T11:29:13.169Z,5.22
2022-09-25T11:32:02.176Z,5.10
2022-09-25T11:34:53.383Z,6.43
2022-09-25T11:37:27.451Z,7.15
2022-09-25T11:40:40.174Z,7.28
2022-09-25T11:43:11.145Z,6.53
2022-09-25T11:45:59.567Z,6.75
2022-09-25T11:48:51.000Z,6.43
2022-09-25T11:51:29.236Z,5.88
2022-09-25T11:54:36.535Z,5.43
2022-09-25T11:57:13.725Z,4.63
2022-09-25T11:59:58.007Z,5.32
2022-09-25T12:02:38.764Z,3.95
2022-09-25T12:05:08.383Z,6.22
2022-09-25T12:08:03.994Z,5.65
2022-09-25T12:10:48.961Z,4.82
2022-09-25T12:13:24.903Z,4.90
2022-09-25T12:16:13.239Z,5.80
2022-09-25T12:18:48.817Z,5.63
2022-09-25T12:21:41.890Z,5.35
2022-09-25T12:24:40.253Z,5.70
2022-09-25T12:27:21.179Z,5.80
2022-09-25T12:30:15.432Z,5.78
2022-09-25T12:33:15.117Z,5.57
2022-09-25T12:35:58.478Z,6.35
2022-09-25T12:38:38.301Z,6.28
2022-09-25T12:41:18.073Z,6.65
2022-09-25T12:43:52.139Z,4.30
2022-09-25T12:46:27.581Z,4.47
2022-09-25T12:49:14.689Z,3.78
2022-09-25T12:51:46.362Z,4.15
2022-09-25T12:54:23.290Z,4.70
2022-09-25T12:56:56.405Z,4.40
2022-09-25T12:59:26.291Z,4.57
2022-09-25T13:02:03.954Z,3.88
2022-09-25T13:05:02.466Z,4.50
2022-09-25T13:07:43.577Z,4.75
2022-09-25T13:10:39.399Z,5.72
2022-09-25T13:13:13.138Z,6.72
2022-09-25T13:15:42.918Z,6.47
2022-09-25T13:18:17.011Z,6.05
2022-09-25T13:20:49.054Z,6.78
2022-09-25T13:23:25.842Z,7.10
2022-09-25T13:26:08.605Z,6.82
2022-09-25T13:28:47.602Z,6.22
2022-09-25T13:31:23.768Z,7.32
2022-09-25T13:34:02.624Z,7.15
2022-09-25T13:36:45.439Z,5.78
2022-09-25T13:39:33.815Z,6.10
2022-09-25T13:42:13.484Z,5.25
2022-09-25T13:44:43.610Z,5.50
2022-09-25T13:47:25.311Z,5.35
2022-09-25T13:50:12.016Z,6.20
2022-09-25T13:52:38.795Z,6.13
2022-09-25T13:55:22.254Z,6.93
2022-09-25T13:57:55.988Z,7.38
2022-09-25T14:00:23.513Z,6.35
2022-09-25T14:02:50.785Z,7.03
2022-09-25T14:05:21.662Z,6.20
2022-09-25T14:07:52.739Z,6.07
2022-09-25T14:10:20.354Z,6.03
2022-09-25T14:12:49.801Z,5.95
2022-09-25T14:15:35.737Z,5.88
2022-09-25T14:18:08.412Z,6.15
2022-09-25T14:20:41.252Z,6.05
2022-09-25T14:23:24.719Z,5.68
2022-09-25T14:26:02.769Z,8.68
2022-09-25T14:28:33.065Z,9.80
2022-09-25T14:31:21.557Z,8.82
2022-09-25T14:34:16.303Z,9.68
2022-09-25T14:37:07.059Z,9.20
2022-09-25T14:40:25.269Z,8.88
2022-09-25T14:43:17.202Z,7.68
2022-09-25T14:45:53.219Z,6.85
2022-09-25T14:48:26.037Z,8.30
2022-09-25T14:50:57.580Z,8.35
2022-09-25T14:53:31.488Z,9.07
2022-09-25T14:56:01.822Z,10.00
2022-09-25T14:58:32.630Z,12.13
2022-09-25T15:01:13.931Z,9.45
2022-09-25T15:03:47.085Z,7.85
2022-09-25T15:06:24.887Z,8.27
2022-09-25T15:08:52.810Z,7.25
2022-09-25T15:11:21.741Z,7.28
2022-09-25T15:13:48.655Z,7.30
2022-09-25T15:16:43.529Z,7.40
2022-09-25T15:21:45.031Z,6.78
2022-09-25T15:24:19.895Z,6.15
2022-09-25T15:26:56.309Z,8.80
2022-09-25T15:29:24.363Z,6.93
2022-09-25T15:31:52.011Z,6.40
2022-09-25T15:34:25.544Z,6.43
2022-09-25T15:36:53.237Z,6.80
2022-09-25T15:39:26.111Z,6.18
2022-09-25T15:41:53.092Z,6.00
2022-09-25T15:44:26.625Z,6.53
2022-09-25T15:46:59.164Z,7.20
2022-09-25T15:49:43.493Z,6.57
2022-09-25T15:52:29.404Z,6.72
2022-09-25T15:55:06.544Z,7.05
2022-09-25T15:57:33.957Z,7.90
2022-09-25T16:00:26.075Z,8.63
2022-09-25T16:03:39.667Z,7.53
2022-09-25T16:06:07.230Z,7.88
2022-09-25T16:08:36.820Z,8.70
2022-09-25T16:11:17.832Z,7.85
2022-09-25T16:13:48.881Z,8.35
2022-09-25T16:16:36.204Z,8.30
2022-09-25T16:19:32.734Z,8.57
2022-09-25T16:22:13.223Z,9.20
2022-09-25T16:24:40.514Z,8.80
2022-09-25T16:27:07.629Z,9.52
2022-09-25T16:29:39.303Z,8.90
2022-09-25T16:32:13.761Z,9.30
2022-09-25T16:37:20.807Z,9.18
2022-09-25T16:40:19.555Z,9.85
2022-09-25T16:42:47.434Z,10.82
2022-09-25T16:45:22.874Z,10.43
2022-09-25T16:47:50.759Z,10.88
2022-09-25T16:50:19.235Z,11.93
2022-09-25T16:52:47.054Z,11.75
2022-09-25T16:55:26.316Z,11.75
2022-09-25T16:57:54.295Z,12.48
2022-09-25T17:00:28.337Z,11.45
2022-09-25T17:02:56.001Z,12.38
2022-09-25T17:05:29.071Z,12.50
2022-09-25T17:07:58.091Z,12.05
2022-09-25T17:10:28.730Z,12.95
2022-09-25T17:12:59.143Z,13.15
2022-09-25T17:15:36.470Z,13.73
2022-09-25T17:18:07.185Z,13.18
2022-09-25T17:20:35.644Z,13.63
2022-09-25T17:23:02.476Z,12.80
2022-09-25T17:25:41.565Z,13.98
2022-09-25T17:28:10.542Z,14.25
2022-09-25T17:30:38.967Z,13.88
2022-09-25T17:33:09.348Z,14.45
2022-09-25T17:35:45.223Z,15.43
2022-09-25T17:38:14.842Z,15.88
2022-09-25T17:40:44.582Z,15.63
2022-09-25T17:43:13.999Z,16.38
2022-09-25T17:46:04.090Z,16.48
2022-09-25T17:48:31.989Z,15.57
2022-09-25T17:51:16.414Z,16.77
2022-09-25T17:53:44.071Z,15.63
2022-09-25T17:56:12.174Z,15.10
2022-09-25T17:58:39.257Z,15.88
2022-09-25T18:01:21.890Z,15.25
2022-09-25T18:03:54.672Z,16.40
2022-09-25T18:06:22.509Z,16.13
2022-09-25T18:08:51.010Z,17.35
2022-09-25T18:11:18.199Z,15.70
2022-09-25T18:13:45.262Z,16.55
2022-09-25T18:16:21.102Z,15.48
2022-09-25T18:19:06.948Z,16.60
2022-09-25T18:21:52.624Z,16.20
2022-09-25T18:24:19.529Z,16.35
2022-09-25T18:26:46.781Z,17.13
2022-09-25T18:29:18.236Z,17.20
2022-09-25T18:31:46.627Z,19.98
2022-09-25T18:34:14.717Z,17.25
2022-09-25T18:36:41.848Z,17.23
2022-09-25T18:39:08.987Z,20.02
2022-09-25T18:41:39.691Z,19.88
2022-09-25T18:44:07.423Z,17.75
2022-09-25T18:46:38.304Z,19.48
2022-09-25T18:49:06.191Z,19.00
2022-09-25T18:51:34.420Z,19.05
2022-09-25T18:54:01.801Z,19.33
2022-09-25T18:56:28.687Z,17.67
2022-09-25T18:58:55.558Z,19.55
2022-09-25T19:05:10.592Z,18.20
2022-09-25T19:07:38.781Z,18.25
2022-09-25T19:10:09.543Z,18.88
2022-09-25T19:12:36.581Z,19.73
2022-09-25T19:15:04.859Z,17.90
2022-09-25T19:17:32.274Z,19.60
2022-09-25T19:19:59.170Z,20.17
2022-09-25T19:22:26.375Z,20.42
2022-09-25T19:24:54.508Z,19.80
2022-09-25T19:27:21.468Z,19.35
2022-09-25T19:33:30.955Z,19.52
2022-09-25T19:35:59.690Z,18.63
2022-09-25T19:38:27.401Z,18.95
2022-09-25T19:40:54.373Z,19.40
2022-09-25T19:43:21.451Z,17.85
2022-09-25T19:45:52.311Z,20.02
2022-09-25T19:48:19.856Z,18.35
2022-09-25T19:50:46.929Z,20.70
2022-09-25T19:53:14.325Z,20.50
2022-09-25T19:55:43.135Z,20.15
2022-09-25T19:58:11.092Z,20.05
2022-09-25T20:00:42.214Z,22.50
2022-09-25T20:03:10.056Z,21.40
2022-09-25T20:05:39.336Z,22.35
2022-09-25T20:08:07.696Z,23.70
2022-09-25T20:10:35.591Z,22.20
2022-09-25T20:13:02.895Z,23.20
2022-09-25T20:15:30.108Z,22.45
2022-09-25T20:17:57.283Z,23.20
2022-09-25T20:20:28.572Z,21.50
2022-09-25T20:22:56.472Z,21.48
2022-09-25T20:25:24.084Z,21.52
2022-09-25T20:27:52.434Z,22.13
2022-09-25T20:30:19.582Z,22.63
2022-09-25T20:32:46.910Z,21.55
2022-09-25T20:35:14.016Z,22.05
2022-09-25T20:37:40.892Z,23.20
2022-09-25T20:40:08.525Z,22.58
2022-09-25T20:42:35.330Z,24.08
2022-09-25T20:45:02.182Z,23.13
2022-09-25T20:47:33.590Z,23.63
2022-09-25T20:50:00.932Z,23.17
2022-09-25T20:52:28.585Z,23.42
2022-09-25T20:54:56.562Z,23.08
2022-09-25T20:57:23.388Z,24.23
2022-09-25T20:59:50.342Z,23.05
2022-09-25T21:02:17.354Z,23.58
2022-09-25T21:04:45.103Z,24.20
2022-09-25T21:07:16.615Z,34.65
2022-09-25T21:09:43.960Z,42.58
2022-09-25T21:12:10.798Z,45.95
2022-09-25T21:14:38.066Z,51.55
2022-09-25T21:17:05.016Z,40.20
2022-09-25T21:19:32.030Z,38.88
2022-09-25T21:21:59.076Z,32.72
2022-09-25T21:24:25.946Z,34.25
2022-09-25T21:26:52.788Z,28.17
2022-09-25T21:29:20.099Z,27.73
2022-09-25T21:31:50.342Z,27.70
2022-09-25T21:34:18.189Z,28.48
2022-09-25T21:36:45.790Z,25.73
2022-09-25T21:39:13.380Z,24.90
2022-09-25T21:41:40.841Z,24.60
2022-09-25T21:44:13.244Z,25.13
2022-09-25T21:46:40.903Z,24.67
2022-09-25T21:49:08.833Z,24.15
2022-09-25T21:51:45.738Z,25.38
2022-09-25T21:54:14.281Z,24.80
2022-09-25T21:56:41.530Z,25.70
2022-09-25T21:59:09.472Z,24.75
2022-09-25T22:01:38.708Z,23.17
2022-09-25T22:04:06.974Z,23.85
2022-09-25T22:06:37.166Z,23.95
2022-09-25T22:09:07.026Z,23.85
2022-09-25T22:11:34.353Z,23.52
2022-09-25T22:14:01.994Z,23.27
2022-09-25T22:16:34.995Z,22.27
2022-09-25T22:19:11.847Z,22.58
2022-09-25T22:21:39.495Z,21.55
2022-09-25T22:24:07.190Z,22.23
2022-09-25T22:26:36.807Z,21.33
2022-09-25T22:29:04.251Z,21.42
2022-09-25T22:31:32.951Z,21.02
2022-09-25T22:34:06.302Z,20.98
2022-09-25T22:36:36.414Z,19.77
2022-09-25T22:39:04.733Z,19.45
2022-09-25T22:41:32.302Z,20.52
2022-09-25T22:44:00.966Z,20.00
2022-09-25T22:46:28.313Z,19.95
2022-09-25T22:48:55.170Z,20.45
2022-09-25T22:51:24.852Z,19.52
2022-09-25T22:53:52.548Z,20.80
2022-09-25T22:56:30.471Z,19.65
2022-09-25T22:59:06.231Z,21.73
2022-09-25T23:01:46.681Z,25.42
2022-09-25T23:04:16.589Z,23.42
2022-09-25T23:06:43.888Z,24.75
2022-09-25T23:09:17.008Z,25.30
2022-09-25T23:11:44.809Z,24.75
2022-09-25T23:14:17.027Z,23.90
2022-09-25T23:16:45.284Z,23.27
2022-09-25T23:19:13.094Z,22.30
2022-09-25T23:21:40.450Z,21.35
2022-09-25T23:24:11.489Z,22.75
2022-09-25T23:26:38.508Z,21.60
2022-09-25T23:29:05.388Z,22.55
2022-09-25T23:31:33.809Z,22.27
2022-09-25T23:34:01.846Z,21.63
2022-09-25T23:36:29.637Z,20.58
2022-09-25T23:38:59.545Z,20.08
2022-09-25T23:41:35.998Z,19.52
2022-09-25T23:44:06.434Z,19.60
2022-09-25T23:46:36.557Z,19.45
2022-09-25T23:49:04.252Z,18.85
2022-09-25T23:51:31.074Z,19.05
2022-09-25T23:54:00.045Z,17.60
2022-09-25T23:56:29.198Z,17.95
2022-09-25T23:58:57.716Z,17.60
